sensor_id;sensor_type;location;lat;lon;timestamp;P1;durP1;ratioP1;P2;durP2;ratioP2
57985;SDS011;43788;42.670;23.330;2024-02-26T00:00:30;5.10;;;2.20;;
57985;SDS011;43788;42.670;23.330;2024-02-26T00:02:56;2.72;;;2.40;;
57985;SDS011;43788;42.670;23.330;2024-02-26T00:05:21;3.25;;;2.33;;
57985;SDS011;43788;42.670;23.330;2024-02-26T00:07:46;3.03;;;2.13;;
57985;SDS011;43788;42.670;23.330;2024-02-26T00:10:12;2.80;;;2.08;;
57985;SDS011;43788;42.670;23.330;2024-02-26T00:12:38;2.95;;;2.17;;
57985;SDS011;43788;42.670;23.330;2024-02-26T00:15:04;2.72;;;2.25;;
57985;SDS011;43788;42.670;23.330;2024-02-26T00:17:31;1.92;;;1.80;;
57985;SDS011;43788;42.670;23.330;2024-02-26T00:19:56;2.40;;;2.00;;
57985;SDS011;43788;42.670;23.330;2024-02-26T00:22:21;3.38;;;2.22;;
57985;SDS011;43788;42.670;23.330;2024-02-26T00:24:47;3.28;;;2.03;;
57985;SDS011;43788;42.670;23.330;2024-02-26T00:27:12;3.90;;;2.00;;
57985;SDS011;43788;42.670;23.330;2024-02-26T00:29:38;2.55;;;2.13;;
57985;SDS011;43788;42.670;23.330;2024-02-26T00:32:03;1.80;;;1.67;;
57985;SDS011;43788;42.670;23.330;2024-02-26T00:34:29;3.50;;;2.53;;
57985;SDS011;43788;42.670;23.330;2024-02-26T00:36:54;2.50;;;2.30;;
57985;SDS011;43788;42.670;23.330;2024-02-26T00:39:20;2.88;;;2.25;;
57985;SDS011;43788;42.670;23.330;2024-02-26T00:41:45;2.65;;;2.17;;
57985;SDS011;43788;42.670;23.330;2024-02-26T00:44:10;2.35;;;2.15;;
57985;SDS011;43788;42.670;23.330;2024-02-26T00:46:36;2.40;;;1.85;;
57985;SDS011;43788;42.670;23.330;2024-02-26T00:49:02;2.53;;;2.13;;
57985;SDS011;43788;42.670;23.330;2024-02-26T00:51:27;3.63;;;2.35;;
57985;SDS011;43788;42.670;23.330;2024-02-26T00:53:54;2.63;;;1.85;;
57985;SDS011;43788;42.670;23.330;2024-02-26T00:56:21;2.72;;;2.10;;
57985;SDS011;43788;42.670;23.330;2024-02-26T00:58:46;3.60;;;1.88;;
57985;SDS011;43788;42.670;23.330;2024-02-26T01:01:12;2.40;;;2.20;;
57985;SDS011;43788;42.670;23.330;2024-02-26T01:03:37;2.30;;;2.10;;
57985;SDS011;43788;42.670;23.330;2024-02-26T01:06:02;2.60;;;2.22;;
57985;SDS011;43788;42.670;23.330;2024-02-26T01:08:28;3.10;;;2.75;;
57985;SDS011;43788;42.670;23.330;2024-02-26T01:10:54;2.30;;;2.10;;
57985;SDS011;43788;42.670;23.330;2024-02-26T01:13:19;2.83;;;2.20;;
57985;SDS011;43788;42.670;23.330;2024-02-26T01:15:44;2.45;;;2.22;;
57985;SDS011;43788;42.670;23.330;2024-02-26T01:18:10;2.65;;;2.45;;
57985;SDS011;43788;42.670;23.330;2024-02-26T01:20:36;2.70;;;2.00;;
57985;SDS011;43788;42.670;23.330;2024-02-26T01:23:02;7.60;;;2.60;;
57985;SDS011;43788;42.670;23.330;2024-02-26T01:25:27;2.20;;;2.00;;
57985;SDS011;43788;42.670;23.330;2024-02-26T01:27:53;2.53;;;2.30;;
57985;SDS011;43788;42.670;23.330;2024-02-26T01:30:18;2.88;;;2.42;;
57985;SDS011;43788;42.670;23.330;2024-02-26T01:32:44;2.50;;;2.03;;
57985;SDS011;43788;42.670;23.330;2024-02-26T01:35:09;2.90;;;2.40;;
57985;SDS011;43788;42.670;23.330;2024-02-26T01:37:36;2.55;;;2.35;;
57985;SDS011;43788;42.670;23.330;2024-02-26T01:40:02;2.40;;;2.20;;
57985;SDS011;43788;42.670;23.330;2024-02-26T01:42:29;3.55;;;3.25;;
57985;SDS011;43788;42.670;23.330;2024-02-26T01:44:56;3.55;;;2.83;;
57985;SDS011;43788;42.670;23.330;2024-02-26T01:47:21;2.92;;;2.70;;
57985;SDS011;43788;42.670;23.330;2024-02-26T01:49:47;3.60;;;2.80;;
57985;SDS011;43788;42.670;23.330;2024-02-26T01:52:13;2.75;;;2.55;;
57985;SDS011;43788;42.670;23.330;2024-02-26T01:54:39;2.95;;;2.40;;
57985;SDS011;43788;42.670;23.330;2024-02-26T01:57:05;3.58;;;2.42;;
57985;SDS011;43788;42.670;23.330;2024-02-26T01:59:32;5.90;;;2.58;;
57985;SDS011;43788;42.670;23.330;2024-02-26T02:01:58;2.45;;;2.25;;
57985;SDS011;43788;42.670;23.330;2024-02-26T02:04:26;4.25;;;2.90;;
57985;SDS011;43788;42.670;23.330;2024-02-26T02:06:52;3.35;;;2.67;;
57985;SDS011;43788;42.670;23.330;2024-02-26T02:09:18;4.43;;;2.40;;
57985;SDS011;43788;42.670;23.330;2024-02-26T02:11:43;2.55;;;2.17;;
57985;SDS011;43788;42.670;23.330;2024-02-26T02:14:09;2.97;;;2.40;;
57985;SDS011;43788;42.670;23.330;2024-02-26T02:16:35;2.20;;;2.00;;
57985;SDS011;43788;42.670;23.330;2024-02-26T02:19:00;3.67;;;1.90;;
57985;SDS011;43788;42.670;23.330;2024-02-26T02:21:26;2.80;;;2.20;;
57985;SDS011;43788;42.670;23.330;2024-02-26T02:23:51;5.35;;;2.60;;
57985;SDS011;43788;42.670;23.330;2024-02-26T02:26:16;2.25;;;2.05;;
57985;SDS011;43788;42.670;23.330;2024-02-26T02:28:43;3.17;;;2.28;;
57985;SDS011;43788;42.670;23.330;2024-02-26T02:31:08;2.15;;;1.95;;
57985;SDS011;43788;42.670;23.330;2024-02-26T02:33:34;3.60;;;2.78;;
57985;SDS011;43788;42.670;23.330;2024-02-26T02:36:00;2.55;;;2.17;;
57985;SDS011;43788;42.670;23.330;2024-02-26T02:38:25;2.80;;;2.55;;
57985;SDS011;43788;42.670;23.330;2024-02-26T02:40:51;2.95;;;2.65;;
57985;SDS011;43788;42.670;23.330;2024-02-26T02:43:17;2.90;;;2.22;;
57985;SDS011;43788;42.670;23.330;2024-02-26T02:45:42;3.83;;;2.17;;
57985;SDS011;43788;42.670;23.330;2024-02-26T02:48:08;2.35;;;2.05;;
57985;SDS011;43788;42.670;23.330;2024-02-26T02:50:33;2.20;;;2.00;;
57985;SDS011;43788;42.670;23.330;2024-02-26T02:52:59;2.60;;;2.40;;
57985;SDS011;43788;42.670;23.330;2024-02-26T02:55:24;2.05;;;1.85;;
57985;SDS011;43788;42.670;23.330;2024-02-26T02:57:50;1.92;;;1.83;;
57985;SDS011;43788;42.670;23.330;2024-02-26T03:00:15;2.35;;;2.05;;
57985;SDS011;43788;42.670;23.330;2024-02-26T03:02:41;2.65;;;2.45;;
57985;SDS011;43788;42.670;23.330;2024-02-26T03:05:07;3.03;;;1.90;;
57985;SDS011;43788;42.670;23.330;2024-02-26T03:07:33;3.15;;;2.42;;
57985;SDS011;43788;42.670;23.330;2024-02-26T03:09:59;2.20;;;1.92;;
57985;SDS011;43788;42.670;23.330;2024-02-26T03:12:24;1.77;;;1.65;;
57985;SDS011;43788;42.670;23.330;2024-02-26T03:14:49;1.88;;;1.77;;
57985;SDS011;43788;42.670;23.330;2024-02-26T03:17:16;2.00;;;1.60;;
57985;SDS011;43788;42.670;23.330;2024-02-26T03:19:41;1.90;;;1.70;;
57985;SDS011;43788;42.670;23.330;2024-02-26T03:22:11;2.00;;;1.80;;
57985;SDS011;43788;42.670;23.330;2024-02-26T03:24:37;2.65;;;2.08;;
57985;SDS011;43788;42.670;23.330;2024-02-26T03:27:02;2.65;;;1.83;;
57985;SDS011;43788;42.670;23.330;2024-02-26T03:29:28;1.65;;;1.55;;
57985;SDS011;43788;42.670;23.330;2024-02-26T03:31:53;1.80;;;1.70;;
57985;SDS011;43788;42.670;23.330;2024-02-26T03:34:18;2.28;;;2.00;;
57985;SDS011;43788;42.670;23.330;2024-02-26T03:36:44;2.42;;;2.05;;
57985;SDS011;43788;42.670;23.330;2024-02-26T03:39:10;2.05;;;1.88;;
57985;SDS011;43788;42.670;23.330;2024-02-26T03:41:36;2.28;;;1.65;;
57985;SDS011;43788;42.670;23.330;2024-02-26T03:44:02;3.20;;;1.65;;
57985;SDS011;43788;42.670;23.330;2024-02-26T03:46:28;2.38;;;1.90;;
57985;SDS011;43788;42.670;23.330;2024-02-26T03:48:53;1.77;;;1.35;;
57985;SDS011;43788;42.670;23.330;2024-02-26T03:51:18;2.28;;;2.08;;
57985;SDS011;43788;42.670;23.330;2024-02-26T03:53:44;1.90;;;1.70;;
57985;SDS011;43788;42.670;23.330;2024-02-26T03:56:10;1.80;;;1.70;;
57985;SDS011;43788;42.670;23.330;2024-02-26T03:58:36;1.90;;;1.50;;
57985;SDS011;43788;42.670;23.330;2024-02-26T04:01:02;1.60;;;1.40;;
57985;SDS011;43788;42.670;23.330;2024-02-26T04:03:27;2.65;;;1.75;;
57985;SDS011;43788;42.670;23.330;2024-02-26T04:05:53;2.50;;;1.85;;
57985;SDS011;43788;42.670;23.330;2024-02-26T04:08:18;2.17;;;1.98;;
57985;SDS011;43788;42.670;23.330;2024-02-26T04:10:44;1.85;;;1.75;;
57985;SDS011;43788;42.670;23.330;2024-02-26T04:13:09;3.90;;;2.33;;
57985;SDS011;43788;42.670;23.330;2024-02-26T04:15:34;2.22;;;1.95;;
57985;SDS011;43788;42.670;23.330;2024-02-26T04:18:00;2.33;;;2.13;;
57985;SDS011;43788;42.670;23.330;2024-02-26T04:20:25;2.15;;;1.88;;
57985;SDS011;43788;42.670;23.330;2024-02-26T04:22:51;2.22;;;2.03;;
57985;SDS011;43788;42.670;23.330;2024-02-26T04:25:16;2.85;;;1.95;;
57985;SDS011;43788;42.670;23.330;2024-02-26T04:27:42;3.20;;;2.20;;
57985;SDS011;43788;42.670;23.330;2024-02-26T04:30:07;2.63;;;2.15;;
57985;SDS011;43788;42.670;23.330;2024-02-26T04:32:33;2.28;;;2.00;;
57985;SDS011;43788;42.670;23.330;2024-02-26T04:34:59;2.17;;;2.00;;
57985;SDS011;43788;42.670;23.330;2024-02-26T04:37:25;2.60;;;1.95;;
57985;SDS011;43788;42.670;23.330;2024-02-26T04:39:55;2.83;;;2.10;;
57985;SDS011;43788;42.670;23.330;2024-02-26T04:42:23;2.03;;;1.90;;
57985;SDS011;43788;42.670;23.330;2024-02-26T04:44:48;2.20;;;1.70;;
57985;SDS011;43788;42.670;23.330;2024-02-26T04:47:13;2.67;;;1.92;;
57985;SDS011;43788;42.670;23.330;2024-02-26T04:49:39;1.98;;;1.77;;
57985;SDS011;43788;42.670;23.330;2024-02-26T04:52:05;2.65;;;2.10;;
57985;SDS011;43788;42.670;23.330;2024-02-26T04:54:30;2.78;;;2.35;;
57985;SDS011;43788;42.670;23.330;2024-02-26T04:56:56;2.50;;;2.17;;
57985;SDS011;43788;42.670;23.330;2024-02-26T04:59:21;3.55;;;2.58;;
57985;SDS011;43788;42.670;23.330;2024-02-26T05:01:46;2.58;;;2.35;;
57985;SDS011;43788;42.670;23.330;2024-02-26T05:04:12;2.88;;;2.38;;
57985;SDS011;43788;42.670;23.330;2024-02-26T05:06:37;2.50;;;2.30;;
57985;SDS011;43788;42.670;23.330;2024-02-26T05:09:03;2.80;;;2.33;;
57985;SDS011;43788;42.670;23.330;2024-02-26T05:11:29;2.63;;;2.40;;
57985;SDS011;43788;42.670;23.330;2024-02-26T05:13:54;2.85;;;2.08;;
57985;SDS011;43788;42.670;23.330;2024-02-26T05:16:20;3.15;;;2.35;;
57985;SDS011;43788;42.670;23.330;2024-02-26T05:18:49;2.42;;;2.00;;
57985;SDS011;43788;42.670;23.330;2024-02-26T05:21:14;1.73;;;1.63;;
57985;SDS011;43788;42.670;23.330;2024-02-26T05:23:40;2.17;;;1.90;;
57985;SDS011;43788;42.670;23.330;2024-02-26T05:26:07;2.08;;;1.83;;
57985;SDS011;43788;42.670;23.330;2024-02-26T05:28:33;2.25;;;1.77;;
57985;SDS011;43788;42.670;23.330;2024-02-26T05:30:58;1.80;;;1.70;;
57985;SDS011;43788;42.670;23.330;2024-02-26T05:33:24;1.30;;;1.20;;
57985;SDS011;43788;42.670;23.330;2024-02-26T05:35:50;2.13;;;1.58;;
57985;SDS011;43788;42.670;23.330;2024-02-26T05:38:15;1.50;;;1.40;;
57985;SDS011;43788;42.670;23.330;2024-02-26T05:40:41;2.30;;;1.70;;
57985;SDS011;43788;42.670;23.330;2024-02-26T05:43:06;1.50;;;1.40;;
57985;SDS011;43788;42.670;23.330;2024-02-26T05:45:32;1.65;;;1.30;;
57985;SDS011;43788;42.670;23.330;2024-02-26T05:47:58;2.15;;;1.70;;
57985;SDS011;43788;42.670;23.330;2024-02-26T05:50:23;3.55;;;2.20;;
57985;SDS011;43788;42.670;23.330;2024-02-26T05:52:49;2.28;;;1.83;;
57985;SDS011;43788;42.670;23.330;2024-02-26T05:55:14;2.42;;;1.80;;
57985;SDS011;43788;42.670;23.330;2024-02-26T05:57:40;3.22;;;1.77;;
57985;SDS011;43788;42.670;23.330;2024-02-26T06:00:06;6.22;;;2.50;;
57985;SDS011;43788;42.670;23.330;2024-02-26T06:02:32;2.00;;;1.80;;
57985;SDS011;43788;42.670;23.330;2024-02-26T06:04:57;1.98;;;1.58;;
57985;SDS011;43788;42.670;23.330;2024-02-26T06:07:23;1.40;;;1.30;;
57985;SDS011;43788;42.670;23.330;2024-02-26T06:09:48;1.33;;;1.23;;
57985;SDS011;43788;42.670;23.330;2024-02-26T06:12:14;1.73;;;1.33;;
57985;SDS011;43788;42.670;23.330;2024-02-26T06:14:39;4.63;;;1.60;;
57985;SDS011;43788;42.670;23.330;2024-02-26T06:17:05;1.88;;;1.50;;
57985;SDS011;43788;42.670;23.330;2024-02-26T06:19:32;2.42;;;1.67;;
57985;SDS011;43788;42.670;23.330;2024-02-26T06:21:57;1.98;;;1.70;;
57985;SDS011;43788;42.670;23.330;2024-02-26T06:24:24;1.52;;;1.13;;
57985;SDS011;43788;42.670;23.330;2024-02-26T06:26:49;2.22;;;1.40;;
57985;SDS011;43788;42.670;23.330;2024-02-26T06:29:15;1.75;;;1.50;;
57985;SDS011;43788;42.670;23.330;2024-02-26T06:31:40;2.15;;;1.50;;
57985;SDS011;43788;42.670;23.330;2024-02-26T06:34:05;2.42;;;1.63;;
57985;SDS011;43788;42.670;23.330;2024-02-26T06:36:31;1.20;;;1.10;;
57985;SDS011;43788;42.670;23.330;2024-02-26T06:38:57;2.00;;;1.40;;
57985;SDS011;43788;42.670;23.330;2024-02-26T06:41:22;1.50;;;1.40;;
57985;SDS011;43788;42.670;23.330;2024-02-26T06:43:53;2.88;;;1.90;;
57985;SDS011;43788;42.670;23.330;2024-02-26T06:46:19;2.28;;;1.60;;
57985;SDS011;43788;42.670;23.330;2024-02-26T06:48:44;2.08;;;1.90;;
57985;SDS011;43788;42.670;23.330;2024-02-26T06:51:10;1.80;;;1.58;;
57985;SDS011;43788;42.670;23.330;2024-02-26T06:53:35;1.50;;;1.40;;
57985;SDS011;43788;42.670;23.330;2024-02-26T06:56:00;5.28;;;1.73;;
57985;SDS011;43788;42.670;23.330;2024-02-26T06:58:27;1.98;;;1.75;;
57985;SDS011;43788;42.670;23.330;2024-02-26T07:00:52;1.95;;;1.85;;
57985;SDS011;43788;42.670;23.330;2024-02-26T07:03:17;2.30;;;2.10;;
57985;SDS011;43788;42.670;23.330;2024-02-26T07:05:43;4.40;;;2.10;;
57985;SDS011;43788;42.670;23.330;2024-02-26T07:08:10;2.95;;;2.28;;
57985;SDS011;43788;42.670;23.330;2024-02-26T07:10:35;2.05;;;1.83;;
57985;SDS011;43788;42.670;23.330;2024-02-26T07:13:01;2.42;;;2.22;;
57985;SDS011;43788;42.670;23.330;2024-02-26T07:15:26;3.20;;;2.70;;
57985;SDS011;43788;42.670;23.330;2024-02-26T07:17:51;4.07;;;1.73;;
57985;SDS011;43788;42.670;23.330;2024-02-26T07:20:17;2.33;;;1.98;;
57985;SDS011;43788;42.670;23.330;2024-02-26T07:22:43;3.70;;;2.78;;
57985;SDS011;43788;42.670;23.330;2024-02-26T07:25:09;2.30;;;2.08;;
57985;SDS011;43788;42.670;23.330;2024-02-26T07:27:38;4.18;;;2.08;;
57985;SDS011;43788;42.670;23.330;2024-02-26T07:30:03;4.78;;;2.47;;
57985;SDS011;43788;42.670;23.330;2024-02-26T07:32:29;5.13;;;2.80;;
57985;SDS011;43788;42.670;23.330;2024-02-26T07:34:55;6.65;;;3.00;;
57985;SDS011;43788;42.670;23.330;2024-02-26T07:37:20;5.55;;;3.50;;
57985;SDS011;43788;42.670;23.330;2024-02-26T07:39:45;4.07;;;2.50;;
57985;SDS011;43788;42.670;23.330;2024-02-26T07:42:11;3.22;;;1.98;;
57985;SDS011;43788;42.670;23.330;2024-02-26T07:44:37;2.20;;;1.90;;
57985;SDS011;43788;42.670;23.330;2024-02-26T07:47:02;2.10;;;1.90;;
57985;SDS011;43788;42.670;23.330;2024-02-26T07:49:28;2.53;;;1.88;;
57985;SDS011;43788;42.670;23.330;2024-02-26T07:51:53;2.80;;;2.03;;
57985;SDS011;43788;42.670;23.330;2024-02-26T07:54:19;2.17;;;1.83;;
57985;SDS011;43788;42.670;23.330;2024-02-26T07:56:45;4.05;;;2.38;;
57985;SDS011;43788;42.670;23.330;2024-02-26T07:59:11;2.35;;;2.05;;
57985;SDS011;43788;42.670;23.330;2024-02-26T08:01:36;7.10;;;1.85;;
57985;SDS011;43788;42.670;23.330;2024-02-26T08:04:07;2.22;;;1.48;;
57985;SDS011;43788;42.670;23.330;2024-02-26T08:06:32;1.75;;;1.50;;
57985;SDS011;43788;42.670;23.330;2024-02-26T08:08:58;1.95;;;1.83;;
57985;SDS011;43788;42.670;23.330;2024-02-26T08:11:24;1.80;;;1.50;;
57985;SDS011;43788;42.670;23.330;2024-02-26T08:13:49;2.53;;;1.52;;
57985;SDS011;43788;42.670;23.330;2024-02-26T08:16:15;1.58;;;1.48;;
57985;SDS011;43788;42.670;23.330;2024-02-26T08:18:41;1.45;;;1.30;;
57985;SDS011;43788;42.670;23.330;2024-02-26T08:21:06;2.60;;;1.90;;
57985;SDS011;43788;42.670;23.330;2024-02-26T08:23:33;1.55;;;1.40;;
57985;SDS011;43788;42.670;23.330;2024-02-26T08:25:59;1.95;;;1.67;;
57985;SDS011;43788;42.670;23.330;2024-02-26T08:28:32;1.10;;;1.00;;
57985;SDS011;43788;42.670;23.330;2024-02-26T08:30:58;1.17;;;0.88;;
57985;SDS011;43788;42.670;23.330;2024-02-26T08:33:23;1.80;;;1.38;;
57985;SDS011;43788;42.670;23.330;2024-02-26T08:35:49;1.35;;;1.05;;
57985;SDS011;43788;42.670;23.330;2024-02-26T08:38:15;1.88;;;1.20;;
57985;SDS011;43788;42.670;23.330;2024-02-26T08:40:40;1.77;;;1.30;;
57985;SDS011;43788;42.670;23.330;2024-02-26T08:43:10;2.22;;;1.60;;
57985;SDS011;43788;42.670;23.330;2024-02-26T08:45:36;1.70;;;1.25;;
57985;SDS011;43788;42.670;23.330;2024-02-26T08:48:47;1.65;;;0.88;;
57985;SDS011;43788;42.670;23.330;2024-02-26T08:51:13;0.80;;;0.80;;
57985;SDS011;43788;42.670;23.330;2024-02-26T08:53:39;1.00;;;0.88;;
57985;SDS011;43788;42.670;23.330;2024-02-26T08:56:04;1.20;;;1.10;;
57985;SDS011;43788;42.670;23.330;2024-02-26T08:58:30;2.22;;;1.27;;
57985;SDS011;43788;42.670;23.330;2024-02-26T09:00:56;0.68;;;0.68;;
57985;SDS011;43788;42.670;23.330;2024-02-26T09:03:22;1.80;;;0.80;;
57985;SDS011;43788;42.670;23.330;2024-02-26T09:05:47;1.10;;;1.00;;
57985;SDS011;43788;42.670;23.330;2024-02-26T09:08:14;1.08;;;1.02;;
57985;SDS011;43788;42.670;23.330;2024-02-26T09:10:40;0.68;;;0.68;;
57985;SDS011;43788;42.670;23.330;2024-02-26T09:13:05;1.05;;;0.63;;
57985;SDS011;43788;42.670;23.330;2024-02-26T09:15:31;2.72;;;0.80;;
57985;SDS011;43788;42.670;23.330;2024-02-26T09:17:56;0.60;;;0.60;;
57985;SDS011;43788;42.670;23.330;2024-02-26T09:20:22;0.65;;;0.50;;
57985;SDS011;43788;42.670;23.330;2024-02-26T09:22:48;0.63;;;0.60;;
57985;SDS011;43788;42.670;23.330;2024-02-26T09:25:14;1.05;;;0.88;;
57985;SDS011;43788;42.670;23.330;2024-02-26T09:27:41;1.17;;;0.70;;
57985;SDS011;43788;42.670;23.330;2024-02-26T09:30:09;2.97;;;0.90;;
57985;SDS011;43788;42.670;23.330;2024-02-26T09:32:35;0.80;;;0.80;;
57985;SDS011;43788;42.670;23.330;2024-02-26T09:35:01;0.52;;;0.52;;
57985;SDS011;43788;42.670;23.330;2024-02-26T09:37:26;0.80;;;0.80;;
57985;SDS011;43788;42.670;23.330;2024-02-26T09:39:52;2.42;;;0.95;;
57985;SDS011;43788;42.670;23.330;2024-02-26T09:42:18;1.10;;;0.70;;
57985;SDS011;43788;42.670;23.330;2024-02-26T09:44:44;1.88;;;0.95;;
57985;SDS011;43788;42.670;23.330;2024-02-26T09:47:10;1.20;;;0.80;;
57985;SDS011;43788;42.670;23.330;2024-02-26T09:49:40;1.20;;;0.70;;
57985;SDS011;43788;42.670;23.330;2024-02-26T09:52:07;0.52;;;0.52;;
57985;SDS011;43788;42.670;23.330;2024-02-26T09:54:34;3.78;;;1.00;;
57985;SDS011;43788;42.670;23.330;2024-02-26T09:57:00;2.08;;;0.50;;
57985;SDS011;43788;42.670;23.330;2024-02-26T09:59:29;0.98;;;0.60;;
57985;SDS011;43788;42.670;23.330;2024-02-26T10:01:55;3.97;;;0.60;;
57985;SDS011;43788;42.670;23.330;2024-02-26T10:04:21;0.50;;;0.50;;
57985;SDS011;43788;42.670;23.330;2024-02-26T10:06:47;0.45;;;0.45;;
57985;SDS011;43788;42.670;23.330;2024-02-26T10:09:14;0.50;;;0.50;;
57985;SDS011;43788;42.670;23.330;2024-02-26T10:11:41;0.63;;;0.63;;
57985;SDS011;43788;42.670;23.330;2024-02-26T10:14:08;0.40;;;0.40;;
57985;SDS011;43788;42.670;23.330;2024-02-26T10:16:34;0.50;;;0.50;;
57985;SDS011;43788;42.670;23.330;2024-02-26T10:19:00;0.98;;;0.50;;
57985;SDS011;43788;42.670;23.330;2024-02-26T10:21:26;0.95;;;0.70;;
57985;SDS011;43788;42.670;23.330;2024-02-26T10:23:52;0.60;;;0.60;;
57985;SDS011;43788;42.670;23.330;2024-02-26T10:26:18;1.08;;;0.85;;
57985;SDS011;43788;42.670;23.330;2024-02-26T10:28:45;1.05;;;0.60;;
57985;SDS011;43788;42.670;23.330;2024-02-26T10:31:11;1.75;;;0.65;;
57985;SDS011;43788;42.670;23.330;2024-02-26T10:33:37;0.50;;;0.45;;
57985;SDS011;43788;42.670;23.330;2024-02-26T10:36:04;2.83;;;1.80;;
57985;SDS011;43788;42.670;23.330;2024-02-26T10:38:30;0.75;;;0.47;;
57985;SDS011;43788;42.670;23.330;2024-02-26T10:40:57;5.32;;;0.60;;
57985;SDS011;43788;42.670;23.330;2024-02-26T10:43:22;0.50;;;0.50;;
57985;SDS011;43788;42.670;23.330;2024-02-26T10:45:48;0.35;;;0.30;;
57985;SDS011;43788;42.670;23.330;2024-02-26T10:48:14;0.65;;;0.52;;
57985;SDS011;43788;42.670;23.330;2024-02-26T10:50:40;0.65;;;0.65;;
57985;SDS011;43788;42.670;23.330;2024-02-26T10:53:07;0.95;;;0.57;;
57985;SDS011;43788;42.670;23.330;2024-02-26T10:55:40;0.50;;;0.50;;
57985;SDS011;43788;42.670;23.330;2024-02-26T10:58:06;0.55;;;0.50;;
57985;SDS011;43788;42.670;23.330;2024-02-26T11:00:56;0.45;;;0.40;;
57985;SDS011;43788;42.670;23.330;2024-02-26T11:03:22;0.88;;;0.60;;
57985;SDS011;43788;42.670;23.330;2024-02-26T11:05:51;0.43;;;0.43;;
57985;SDS011;43788;42.670;23.330;2024-02-26T11:08:18;0.93;;;0.70;;
57985;SDS011;43788;42.670;23.330;2024-02-26T11:10:45;0.40;;;0.40;;
57985;SDS011;43788;42.670;23.330;2024-02-26T11:13:14;1.95;;;0.70;;
57985;SDS011;43788;42.670;23.330;2024-02-26T11:15:42;2.05;;;1.13;;
57985;SDS011;43788;42.670;23.330;2024-02-26T11:18:08;0.50;;;0.50;;
57985;SDS011;43788;42.670;23.330;2024-02-26T11:20:35;0.68;;;0.50;;
57985;SDS011;43788;42.670;23.330;2024-02-26T11:23:03;0.57;;;0.57;;
57985;SDS011;43788;42.670;23.330;2024-02-26T11:25:29;0.57;;;0.43;;
57985;SDS011;43788;42.670;23.330;2024-02-26T11:27:56;2.15;;;0.55;;
57985;SDS011;43788;42.670;23.330;2024-02-26T11:30:26;0.43;;;0.43;;
57985;SDS011;43788;42.670;23.330;2024-02-26T11:32:55;0.55;;;0.40;;
57985;SDS011;43788;42.670;23.330;2024-02-26T11:35:21;0.35;;;0.35;;
57985;SDS011;43788;42.670;23.330;2024-02-26T11:37:54;0.35;;;0.35;;
57985;SDS011;43788;42.670;23.330;2024-02-26T11:40:23;0.63;;;0.63;;
57985;SDS011;43788;42.670;23.330;2024-02-26T11:42:50;0.57;;;0.55;;
57985;SDS011;43788;42.670;23.330;2024-02-26T11:48:02;1.15;;;0.60;;
57985;SDS011;43788;42.670;23.330;2024-02-26T11:50:35;0.73;;;0.63;;
57985;SDS011;43788;42.670;23.330;2024-02-26T11:58:40;0.50;;;0.50;;
57985;SDS011;43788;42.670;23.330;2024-02-26T12:01:35;0.90;;;0.70;;
57985;SDS011;43788;42.670;23.330;2024-02-26T12:04:04;1.38;;;0.55;;
57985;SDS011;43788;42.670;23.330;2024-02-26T12:06:30;0.22;;;0.22;;
57985;SDS011;43788;42.670;23.330;2024-02-26T12:08:56;1.27;;;0.55;;
57985;SDS011;43788;42.670;23.330;2024-02-26T12:11:21;1.02;;;0.35;;
57985;SDS011;43788;42.670;23.330;2024-02-26T12:13:47;0.47;;;0.47;;
57985;SDS011;43788;42.670;23.330;2024-02-26T12:16:21;0.57;;;0.57;;
57985;SDS011;43788;42.670;23.330;2024-02-26T12:19:03;4.78;;;1.77;;
57985;SDS011;43788;42.670;23.330;2024-02-26T12:21:29;0.38;;;0.38;;
57985;SDS011;43788;42.670;23.330;2024-02-26T12:23:55;0.75;;;0.75;;
57985;SDS011;43788;42.670;23.330;2024-02-26T12:26:20;0.50;;;0.40;;
57985;SDS011;43788;42.670;23.330;2024-02-26T12:28:46;0.45;;;0.40;;
57985;SDS011;43788;42.670;23.330;2024-02-26T12:31:11;0.85;;;0.77;;
57985;SDS011;43788;42.670;23.330;2024-02-26T12:33:37;0.30;;;0.30;;
57985;SDS011;43788;42.670;23.330;2024-02-26T12:36:03;0.35;;;0.35;;
57985;SDS011;43788;42.670;23.330;2024-02-26T12:38:29;0.60;;;0.50;;
57985;SDS011;43788;42.670;23.330;2024-02-26T12:40:55;0.50;;;0.50;;
57985;SDS011;43788;42.670;23.330;2024-02-26T12:43:20;0.80;;;0.55;;
57985;SDS011;43788;42.670;23.330;2024-02-26T12:45:46;1.08;;;0.50;;
57985;SDS011;43788;42.670;23.330;2024-02-26T12:48:12;1.02;;;0.40;;
57985;SDS011;43788;42.670;23.330;2024-02-26T12:50:38;2.22;;;1.88;;
57985;SDS011;43788;42.670;23.330;2024-02-26T12:53:03;0.70;;;0.70;;
57985;SDS011;43788;42.670;23.330;2024-02-26T12:55:30;2.03;;;1.85;;
57985;SDS011;43788;42.670;23.330;2024-02-26T12:57:59;1.17;;;0.40;;
57985;SDS011;43788;42.670;23.330;2024-02-26T13:00:26;0.47;;;0.32;;
57985;SDS011;43788;42.670;23.330;2024-02-26T13:02:53;0.50;;;0.50;;
57985;SDS011;43788;42.670;23.330;2024-02-26T13:05:20;0.52;;;0.47;;
57985;SDS011;43788;42.670;23.330;2024-02-26T13:07:46;0.60;;;0.60;;
57985;SDS011;43788;42.670;23.330;2024-02-26T13:10:12;0.77;;;0.60;;
57985;SDS011;43788;42.670;23.330;2024-02-26T13:12:46;2.45;;;2.10;;
57985;SDS011;43788;42.670;23.330;2024-02-26T13:15:18;4.90;;;4.43;;
57985;SDS011;43788;42.670;23.330;2024-02-26T13:17:45;3.28;;;1.10;;
57985;SDS011;43788;42.670;23.330;2024-02-26T13:20:11;0.40;;;0.40;;
57985;SDS011;43788;42.670;23.330;2024-02-26T13:22:37;0.88;;;0.82;;
57985;SDS011;43788;42.670;23.330;2024-02-26T13:25:03;0.52;;;0.52;;
57985;SDS011;43788;42.670;23.330;2024-02-26T13:27:29;0.38;;;0.32;;
57985;SDS011;43788;42.670;23.330;2024-02-26T13:30:03;1.02;;;0.55;;
57985;SDS011;43788;42.670;23.330;2024-02-26T13:32:33;0.63;;;0.50;;
57985;SDS011;43788;42.670;23.330;2024-02-26T13:37:37;1.40;;;0.65;;
57985;SDS011;43788;42.670;23.330;2024-02-26T13:40:05;0.73;;;0.52;;
57985;SDS011;43788;42.670;23.330;2024-02-26T13:42:32;0.73;;;0.57;;
57985;SDS011;43788;42.670;23.330;2024-02-26T13:44:58;0.45;;;0.45;;
57985;SDS011;43788;42.670;23.330;2024-02-26T13:47:23;0.52;;;0.52;;
57985;SDS011;43788;42.670;23.330;2024-02-26T13:49:48;0.30;;;0.30;;
57985;SDS011;43788;42.670;23.330;2024-02-26T13:52:17;1.65;;;0.75;;
57985;SDS011;43788;42.670;23.330;2024-02-26T13:54:42;0.25;;;0.25;;
57985;SDS011;43788;42.670;23.330;2024-02-26T13:57:08;1.27;;;0.60;;
57985;SDS011;43788;42.670;23.330;2024-02-26T13:59:34;0.60;;;0.30;;
57985;SDS011;43788;42.670;23.330;2024-02-26T14:02:00;1.70;;;0.55;;
57985;SDS011;43788;42.670;23.330;2024-02-26T14:04:28;2.00;;;0.47;;
57985;SDS011;43788;42.670;23.330;2024-02-26T14:06:53;0.47;;;0.47;;
57985;SDS011;43788;42.670;23.330;2024-02-26T14:09:18;0.57;;;0.45;;
57985;SDS011;43788;42.670;23.330;2024-02-26T14:11:45;0.28;;;0.28;;
57985;SDS011;43788;42.670;23.330;2024-02-26T14:14:10;0.52;;;0.52;;
57985;SDS011;43788;42.670;23.330;2024-02-26T14:16:36;0.45;;;0.40;;
57985;SDS011;43788;42.670;23.330;2024-02-26T14:19:01;0.50;;;0.50;;
57985;SDS011;43788;42.670;23.330;2024-02-26T14:21:28;1.30;;;0.57;;
57985;SDS011;43788;42.670;23.330;2024-02-26T14:23:54;0.63;;;0.50;;
57985;SDS011;43788;42.670;23.330;2024-02-26T14:26:21;0.10;;;0.10;;
57985;SDS011;43788;42.670;23.330;2024-02-26T14:28:47;1.42;;;0.38;;
57985;SDS011;43788;42.670;23.330;2024-02-26T14:31:13;1.65;;;0.55;;
57985;SDS011;43788;42.670;23.330;2024-02-26T14:33:38;0.40;;;0.40;;
57985;SDS011;43788;42.670;23.330;2024-02-26T14:36:06;0.45;;;0.30;;
57985;SDS011;43788;42.670;23.330;2024-02-26T14:38:31;0.30;;;0.30;;